Flight Track Log - Related Links

Times and Time Zones

All times are in EDT time to prevent confusion due to time zone crossing. See the N2441K flight status page for this flight to view local times or setup timezone preferences in your user account.

Time Position Orientation Groundspeed Altitude Reporting Facility
EDT Latitude Longitude Course Direction KTS MPH feet Rate Location/Type
Mon 12:47:39 PM 43.9214 -92.5700 202° Southwest 177 204 5,200  Level Minneapolis Center
Mon 12:48:41 PM 43.8683 -92.5842 191° South 182 209 7,800 2,304 Climbing Minneapolis Center
Mon 12:49:44 PM 43.8117 -92.6031 194° South 195 224 10,000 1,920 Climbing Minneapolis Center
Mon 12:50:46 PM 43.7664 -92.6219 197° South 199 229 11,800 2,129 Climbing Minneapolis Center
Mon 12:51:48 PM 43.7058 -92.6586 204° Southwest 200 230 14,400 2,371 Climbing Minneapolis Center
Mon 12:52:00 PM 43.5103 -92.7054 202° Southwest  Level FlightAware Approximate
Mon 12:52:50 PM 43.6583 -92.6817 199° South 191 220 16,700  Level Minneapolis Center
Mon 12:53:52 PM 43.6067 -92.7039 197° South 194 223 18,400 1,597 Climbing Minneapolis Center
Mon 12:54:54 PM 43.5503 -92.7308 199° South 207 238 20,000 1,742 Climbing Minneapolis Center
Mon 12:55:56 PM 43.4806 -92.7600 197° South 219 252 22,000 1,790 Climbing Minneapolis Center
Mon 12:56:58 PM 43.4194 -92.7864 197° South 230 265 23,700 1,548 Climbing Minneapolis Center
Mon 12:58:00 PM 43.3642 -92.8106 198° South 219 252 25,200 1,065 Climbing Minneapolis Center
Mon 12:59:02 PM 43.3039 -92.8361 197° South 225 259 25,900 387 Climbing Minneapolis Center
Mon 01:00:04 PM 43.2350 -92.8689 199° South 252 290 26,000 96 Climbing Minneapolis Center
Mon 01:01:07 PM 43.1456 -92.9100 199° South 280 322 26,100  Climbing Minneapolis Center
Mon 01:02:09 PM 43.0733 -92.9467 200° South 280 322 26,000 -48 Descending Minneapolis Center
Mon 01:03:11 PM 42.9983 -92.9797 198° South 285 328 26,000  Level Minneapolis Center
Mon 01:04:13 PM 42.9250 -93.0131 198° South 283 326 26,000  Level Minneapolis Center
Mon 01:05:15 PM 42.8378 -93.0531 199° South 280 322 26,000  Level Minneapolis Center
Mon 01:06:17 PM 42.7631 -93.0836 197° South 282 325 26,000  Level Minneapolis Center
Mon 01:07:19 PM 42.6881 -93.1150 197° South 284 327 26,000 48 Level Minneapolis Center
Mon 01:08:21 PM 42.6142 -93.1456 197° South 281 323 26,100  Climbing Minneapolis Center
Mon 01:09:23 PM 42.5392 -93.1783 198° South 284 327 26,000  Descending Minneapolis Center
Mon 01:10:25 PM 42.4494 -93.2169 198° South 284 327 26,100 48 Climbing Minneapolis Center
Mon 01:11:27 PM 42.3742 -93.2503 198° South 287 330 26,100 -48 Level Minneapolis Center
Mon 01:12:30 PM 42.2989 -93.2828 198° South 287 330 26,000 -48 Descending Minneapolis Center
Mon 01:13:32 PM 42.2253 -93.3169 199° South 284 327 26,000  Level Minneapolis Center
Mon 01:14:34 PM 42.1514 -93.3481 197° South 282 325 26,000  Level Minneapolis Center
Mon 01:15:36 PM 42.0617 -93.3867 198° South 284 327 26,000  Level Minneapolis Center
Mon 01:16:38 PM 41.9867 -93.4181 197° South 285 328 26,000  Level Minneapolis Center
Mon 01:17:40 PM 41.9044 -93.4539 198° South 288 331 26,000 48 Level Minneapolis Center
Mon 01:18:42 PM 41.8294 -93.4883 199° South 288 331 26,100  Climbing Minneapolis Center
Mon 01:19:44 PM 41.7533 -93.5203 197° South 288 331 26,000 -48 Descending Minneapolis Center
Mon 01:20:46 PM 41.6775 -93.5531 198° South 289 333 26,000  Level Minneapolis Center
Mon 01:21:48 PM 41.6028 -93.5869 199° South 288 331 26,000  Level Minneapolis Center
Mon 01:22:50 PM 41.5111 -93.6261 198° South 289 333 26,000 -48 Level Minneapolis Center
Mon 01:23:52 PM 41.4336 -93.6575 197° South 291 335 25,900 -347 Descending Minneapolis Center
Mon 01:25:43 PM 41.2878 -93.7100 195° South 306 352 25,000 -290 Descending Kansas City Center
Mon 01:26:58 PM 41.1789 -93.7506 196° South 299 344 25,000  Level Minneapolis Center
Mon 01:28:00 PM 41.1025 -93.7778 195° South 290 334 25,000  Level Minneapolis Center
Mon 01:29:03 PM 41.0264 -93.8064 196° South 289 333 25,000  Level Minneapolis Center
Mon 01:30:05 PM 40.9497 -93.8342 195° South 288 331 25,000 -387 Level Minneapolis Center
Mon 01:31:07 PM 40.8711 -93.8628 195° South 290 334 24,200 -1,016 Descending Minneapolis Center
Mon 01:32:09 PM 40.7717 -93.9025 197° South 303 349 22,900 -1,113 Descending Minneapolis Center
Mon 01:33:11 PM 40.6875 -93.9375 198° South 311 358 21,900 -968 Descending Minneapolis Center
Mon 01:34:13 PM 40.6050 -93.9728 198° South 314 361 20,900 -919 Descending Minneapolis Center
Mon 01:35:15 PM 40.5197 -93.9664 177° South 311 358 20,000 -435 Descending Minneapolis Center
Mon 01:36:17 PM 40.4372 -93.9575 175° South 306 352 20,000 -106 Level Minneapolis Center
Mon 01:37:08 PM 40.3569 -93.9472 174° South 294 338 19,800 -649 Descending Kansas City Center
Mon 01:38:08 PM 40.2747 -93.9383 175° South 295 339 18,800 -787 Descending Kansas City Center
Mon 01:39:10 PM 40.1881 -93.9269 174° South 309 356 18,200 -816 Descending Kansas City Center
Mon 01:40:13 PM 40.1033 -93.9186 176° South 310 357 17,100 -1,171 Descending Kansas City Center
Mon 01:41:13 PM 40.0206 -93.9075 174° South 303 349 15,800 -1,355 Descending Kansas City Center
Mon 01:42:17 PM 39.9228 -93.8969 175° South 298 343 14,300 -1,181 Descending Kansas City Center
Mon 01:43:20 PM 39.8414 -93.8886 176° South 296 341 13,300 -1,113 Descending Kansas City Center
Mon 01:44:21 PM 39.7647 -93.8825 176° South 285 328 12,000 -1,122 Descending Kansas City Center
Mon 01:45:23 PM 39.6781 -93.8744 176° South 279 321 11,000 -492 Descending Kansas City Center
Mon 01:46:23 PM 39.6142 -93.8992 197° South 260 299 11,000  Level Kansas City Center
Mon 01:47:28 PM 39.5431 -93.9450 206° Southwest 254 292 11,000 -336 Level Kansas City Center
Mon 01:48:28 PM 39.4828 -93.9833 206° Southwest 252 290 10,300 -871 Descending Kansas City Center
Mon 01:49:32 PM 39.4161 -94.0397 213° Southwest 258 297 9,200 -960 Descending Kansas City Center
Mon 01:50:33 PM 39.3608 -94.0933 217° Southwest 259 298 8,300 -1,131 Descending Kansas City Center
Mon 01:51:34 PM 39.3069 -94.1483 218° Southwest 258 297 6,900 -1,344 Descending Kansas City Center
Mon 01:52:38 PM 39.2447 -94.2111 218° Southwest 254 292 5,500 -1,200 Descending Kansas City Center
Mon 01:53:39 PM 39.1914 -94.2631 217° Southwest 251 289 4,400 -829 Descending Kansas City Center
Mon 01:54:41 PM 39.1292 -94.3256 218° Southwest 252 290 3,800 -624 Descending Kansas City Center
Mon 01:55:44 PM 39.0917 -94.3889 233° Southwest 235 270 3,100 -532 Descending Kansas City Center
Mon 01:56:45 PM 39.0647 -94.4608 244° Southwest 197 227 2,700 -242 Descending Kansas City Center
Mon 01:57:48 PM 39.0539 -94.5203 257° West 180 207 2,600 -144 Descending Kansas City Center
Mon 01:58:50 PM 39.0583 -94.5847 275° West 162 186 2,400 -384 Descending Kansas City Center
Mon 01:59:53 PM 39.0853 -94.6056 329° Northwest 126 145 1,800 -567 Descending Kansas City Center
Mon 02:00:57 PM 39.1181 -94.5956 13° North 121 139 1,200 -563 Descending Kansas City Center
Mon 02:02:00 PM 39.1167 -94.5833 180° South  Level FlightAware Approximate

Login

Don't have an account? Register now (free) for customized features, flight alerts, and more!